createdAt,value
2023-03-19T00:00:43.139Z,49.60
2023-03-19T00:03:10.018Z,49.90
2023-03-19T00:05:36.894Z,49.80
2023-03-19T00:08:03.912Z,49.20
2023-03-19T00:10:31.065Z,49.20
2023-03-19T00:12:57.799Z,49.00
2023-03-19T00:15:24.552Z,47.90
2023-03-19T00:17:51.642Z,47.80
2023-03-19T00:20:19.876Z,47.70
2023-03-19T00:22:46.707Z,47.30
2023-03-19T00:25:13.761Z,47.20
2023-03-19T00:27:40.650Z,46.90
2023-03-19T00:30:09.029Z,47.10
2023-03-19T00:32:36.998Z,47.00
2023-03-19T00:35:06.393Z,47.00
2023-03-19T00:37:33.655Z,47.00
2023-03-19T00:40:00.437Z,46.90
2023-03-19T00:42:27.216Z,46.80
2023-03-19T00:44:54.029Z,46.80
2023-03-19T00:47:21.271Z,46.70
2023-03-19T00:49:48.102Z,46.80
2023-03-19T00:52:14.932Z,47.00
2023-03-19T00:54:42.032Z,47.30
2023-03-19T00:57:09.365Z,47.70
2023-03-19T00:59:36.113Z,47.70
2023-03-19T01:02:03.796Z,47.60
2023-03-19T01:04:30.795Z,49.50
2023-03-19T01:09:25.592Z,50.80
2023-03-19T01:11:52.536Z,50.80
2023-03-19T01:14:19.309Z,51.10
2023-03-19T01:16:46.294Z,51.10
2023-03-19T01:19:13.594Z,51.30
2023-03-19T01:21:40.478Z,51.60
2023-03-19T01:24:07.233Z,51.50
2023-03-19T01:26:34.025Z,51.30
2023-03-19T01:29:00.803Z,51.80
2023-03-19T01:31:27.689Z,52.60
2023-03-19T01:33:54.506Z,51.30
2023-03-19T01:36:21.321Z,50.50
2023-03-19T01:38:48.277Z,51.00
2023-03-19T01:41:15.345Z,50.70
2023-03-19T01:43:42.138Z,49.00
2023-03-19T01:46:15.810Z,48.70
2023-03-19T01:48:49.988Z,48.50
2023-03-19T01:51:20.738Z,47.90
2023-03-19T01:53:55.926Z,47.50
2023-03-19T01:56:34.700Z,47.30
2023-03-19T01:59:09.472Z,47.40
2023-03-19T02:01:42.325Z,47.20
2023-03-19T02:04:09.757Z,46.70
2023-03-19T02:06:37.735Z,46.60
2023-03-19T02:09:04.711Z,47.00
2023-03-19T02:11:32.224Z,47.40
2023-03-19T02:13:58.979Z,47.50
2023-03-19T02:16:27.166Z,47.30
2023-03-19T02:18:54.295Z,47.60
2023-03-19T02:21:22.128Z,48.00
2023-03-19T02:24:22.972Z,48.10
2023-03-19T02:26:50.712Z,48.00
2023-03-19T02:29:17.620Z,47.70
2023-03-19T02:31:44.406Z,48.10
2023-03-19T02:34:14.333Z,48.10
2023-03-19T02:36:48.953Z,48.00
2023-03-19T02:39:23.840Z,48.50
2023-03-19T02:41:53.286Z,48.80
2023-03-19T02:44:20.790Z,48.80
2023-03-19T02:46:47.685Z,49.50
2023-03-19T02:49:15.287Z,48.30
2023-03-19T02:51:42.156Z,48.30
2023-03-19T02:54:08.932Z,48.50
2023-03-19T02:56:35.826Z,48.60
2023-03-19T02:59:03.026Z,48.60
2023-03-19T03:01:30.080Z,48.60
2023-03-19T03:03:57.150Z,48.70
2023-03-19T03:06:23.951Z,49.10
2023-03-19T03:08:50.651Z,49.90
2023-03-19T03:11:17.488Z,50.90
2023-03-19T03:13:44.644Z,52.20
2023-03-19T03:16:11.550Z,52.50
2023-03-19T03:18:38.322Z,52.30
2023-03-19T03:21:05.249Z,52.90
2023-03-19T03:23:31.991Z,51.40
2023-03-19T03:25:58.759Z,51.00
2023-03-19T03:28:25.552Z,50.70
2023-03-19T03:30:57.992Z,50.50
2023-03-19T03:33:25.392Z,50.60
2023-03-19T03:35:52.501Z,51.20
2023-03-19T03:38:19.249Z,51.00
2023-03-19T03:40:46.064Z,51.00
2023-03-19T03:43:12.761Z,52.00
2023-03-19T03:45:39.551Z,53.90
2023-03-19T03:48:06.494Z,54.50
2023-03-19T03:50:33.603Z,55.00
2023-03-19T03:53:01.020Z,55.20
2023-03-19T03:55:28.312Z,55.10
2023-03-19T03:57:55.051Z,54.60
2023-03-19T04:00:22.039Z,53.00
2023-03-19T04:02:48.818Z,53.00
2023-03-19T04:05:16.429Z,52.70
2023-03-19T04:07:43.440Z,52.70
2023-03-19T04:10:12.002Z,52.20
2023-03-19T04:12:39.943Z,51.80
2023-03-19T04:15:09.139Z,51.30
2023-03-19T04:17:35.874Z,51.10
2023-03-19T04:20:05.504Z,50.70
2023-03-19T04:22:33.524Z,50.10
2023-03-19T04:25:00.576Z,50.20
2023-03-19T04:27:27.620Z,49.90
2023-03-19T04:29:54.840Z,49.30
2023-03-19T04:32:21.847Z,49.40
2023-03-19T04:34:48.644Z,49.80
2023-03-19T04:37:15.497Z,50.10
2023-03-19T04:39:42.347Z,50.10
2023-03-19T04:42:09.216Z,50.30
2023-03-19T04:44:36.636Z,51.00
2023-03-19T04:47:04.358Z,51.00
2023-03-19T04:49:31.506Z,51.40
2023-03-19T04:51:58.445Z,51.40
2023-03-19T04:54:25.844Z,52.10
2023-03-19T04:56:53.270Z,52.60
2023-03-19T04:59:22.578Z,53.00
2023-03-19T05:01:49.816Z,51.90
2023-03-19T05:04:17.812Z,51.80
2023-03-19T05:06:44.713Z,51.60
2023-03-19T05:09:11.503Z,51.30
2023-03-19T05:11:38.314Z,51.50
2023-03-19T05:14:05.685Z,51.50
2023-03-19T05:16:33.064Z,51.40
2023-03-19T05:18:59.743Z,51.30
2023-03-19T05:21:26.788Z,51.30
2023-03-19T05:23:54.772Z,51.60
2023-03-19T05:26:21.783Z,52.10
2023-03-19T05:28:48.601Z,52.20
2023-03-19T05:31:15.544Z,53.00
2023-03-19T05:33:42.396Z,53.30
2023-03-19T05:36:09.334Z,52.60
2023-03-19T05:38:36.428Z,52.70
2023-03-19T05:41:07.328Z,52.50
2023-03-19T05:43:34.120Z,52.30
2023-03-19T05:46:01.736Z,52.30
2023-03-19T05:48:28.466Z,52.10
2023-03-19T05:50:55.405Z,51.70
2023-03-19T05:53:23.112Z,52.20
2023-03-19T05:55:49.917Z,52.30
2023-03-19T05:58:17.036Z,52.20
2023-03-19T06:00:44.047Z,52.60
2023-03-19T06:03:11.140Z,53.20
2023-03-19T06:05:38.168Z,53.70
2023-03-19T06:08:05.635Z,54.70
2023-03-19T06:10:34.376Z,55.10
2023-03-19T06:13:01.296Z,55.50
2023-03-19T06:15:28.086Z,55.80
2023-03-19T06:17:54.828Z,56.20
2023-03-19T06:20:21.928Z,56.60
2023-03-19T06:22:48.688Z,56.90
2023-03-19T06:25:16.127Z,58.00
2023-03-19T06:27:42.875Z,58.30
2023-03-19T06:30:10.436Z,58.80
2023-03-19T06:32:37.274Z,59.20
2023-03-19T06:35:04.798Z,59.00
2023-03-19T06:37:31.644Z,59.20
2023-03-19T06:39:58.782Z,60.30
2023-03-19T06:42:25.699Z,61.20
2023-03-19T06:44:53.743Z,62.10
2023-03-19T06:47:20.640Z,63.10
2023-03-19T06:49:47.473Z,64.10
2023-03-19T06:52:14.545Z,65.10
2023-03-19T06:54:45.463Z,65.90
2023-03-19T06:57:12.256Z,65.60
2023-03-19T06:59:38.969Z,66.40
2023-03-19T07:02:05.760Z,66.50
2023-03-19T07:04:32.648Z,66.80
2023-03-19T07:06:59.466Z,66.60
2023-03-19T07:09:27.328Z,66.10
2023-03-19T07:11:54.176Z,65.70
2023-03-19T07:14:20.905Z,66.10
2023-03-19T07:16:47.738Z,66.20
2023-03-19T07:19:14.464Z,66.20
2023-03-19T07:21:41.819Z,66.10
2023-03-19T07:24:08.763Z,66.30
2023-03-19T07:26:35.517Z,66.90
2023-03-19T07:29:02.698Z,67.30
2023-03-19T07:31:29.508Z,67.30
2023-03-19T07:33:56.994Z,67.60
2023-03-19T07:36:23.784Z,68.50
2023-03-19T07:38:51.002Z,68.60
2023-03-19T07:41:17.887Z,68.60
2023-03-19T07:43:44.623Z,68.60
2023-03-19T07:46:11.810Z,68.70
2023-03-19T07:48:38.619Z,69.00
2023-03-19T07:51:05.784Z,68.90
2023-03-19T07:53:32.635Z,69.30
2023-03-19T07:55:59.507Z,69.90
2023-03-19T07:58:27.032Z,70.30
2023-03-19T08:00:54.462Z,70.80
2023-03-19T08:03:21.343Z,70.70
2023-03-19T08:05:50.053Z,70.50
2023-03-19T08:08:17.479Z,70.50
2023-03-19T08:10:45.109Z,70.60
2023-03-19T08:13:11.848Z,70.60
2023-03-19T08:15:38.588Z,70.90
2023-03-19T08:18:06.261Z,71.10
2023-03-19T08:20:33.518Z,71.40
2023-03-19T08:23:00.434Z,71.10
2023-03-19T08:25:27.643Z,70.40
2023-03-19T08:27:54.479Z,70.40
2023-03-19T08:30:21.361Z,70.30
2023-03-19T08:32:49.269Z,70.20
2023-03-19T08:35:17.235Z,70.90
2023-03-19T08:37:44.065Z,70.30
2023-03-19T08:40:12.411Z,69.60
2023-03-19T08:42:44.445Z,69.10
2023-03-19T08:45:13.603Z,68.50
2023-03-19T08:47:41.238Z,68.20
2023-03-19T08:50:08.990Z,67.70
2023-03-19T08:52:35.899Z,68.10
2023-03-19T08:55:03.551Z,66.30
2023-03-19T08:57:32.205Z,66.20
2023-03-19T08:59:58.962Z,65.60
2023-03-19T09:02:25.979Z,65.40
2023-03-19T09:04:53.133Z,65.60
2023-03-19T09:07:20.104Z,64.70
2023-03-19T09:09:46.911Z,64.80
2023-03-19T09:12:16.835Z,65.60
2023-03-19T09:14:44.141Z,65.50
2023-03-19T09:17:11.690Z,65.00
2023-03-19T09:19:38.501Z,63.50
2023-03-19T09:22:05.364Z,63.90
2023-03-19T09:24:32.113Z,64.90
2023-03-19T09:26:58.847Z,65.30
2023-03-19T09:29:25.663Z,65.20
2023-03-19T09:31:52.556Z,64.70
2023-03-19T09:34:19.390Z,64.30
2023-03-19T09:36:46.492Z,64.70
2023-03-19T09:39:13.334Z,65.00
2023-03-19T09:42:01.188Z,64.90
2023-03-19T09:44:39.878Z,63.20
2023-03-19T09:47:31.359Z,62.20
2023-03-19T09:50:05.324Z,61.60
2023-03-19T09:52:32.336Z,61.40
2023-03-19T09:55:24.205Z,61.40
2023-03-19T09:57:56.358Z,61.40
2023-03-19T10:00:34.767Z,61.20
2023-03-19T10:03:30.971Z,61.00
2023-03-19T10:06:35.690Z,61.10
2023-03-19T10:09:21.453Z,60.90
2023-03-19T10:12:14.364Z,59.20
2023-03-19T10:15:02.317Z,57.70
2023-03-19T10:17:41.243Z,57.10
2023-03-19T10:20:47.388Z,56.00
2023-03-19T10:23:37.621Z,53.20
2023-03-19T10:26:09.264Z,49.10
2023-03-19T10:28:36.718Z,51.10
2023-03-19T10:31:29.836Z,50.20
2023-03-19T10:34:31.363Z,47.60
2023-03-19T10:37:12.568Z,46.00
2023-03-19T10:39:42.092Z,44.70
2023-03-19T10:42:41.295Z,45.00
2023-03-19T10:45:26.930Z,43.50
2023-03-19T10:47:56.099Z,44.20
2023-03-19T10:50:34.303Z,44.50
2023-03-19T10:53:22.052Z,45.10
2023-03-19T10:55:59.882Z,44.60
2023-03-19T10:58:29.653Z,44.50
2023-03-19T11:01:04.148Z,43.70
2023-03-19T11:03:38.292Z,43.80
2023-03-19T11:06:14.274Z,43.50
2023-03-19T11:08:41.138Z,43.50
2023-03-19T11:11:24.717Z,43.10
2023-03-19T11:13:51.726Z,43.60
2023-03-19T11:16:18.663Z,42.90
2023-03-19T11:18:49.581Z,39.30
2023-03-19T11:21:29.487Z,37.60
2023-03-19T11:24:01.269Z,38.50
2023-03-19T11:26:28.785Z,38.70
2023-03-19T11:29:02.567Z,38.80
2023-03-19T11:31:53.526Z,37.90
2023-03-19T11:34:59.297Z,38.10
2023-03-19T11:37:42.004Z,39.10
2023-03-19T11:40:20.545Z,40.10
2023-03-19T11:43:00.294Z,40.70
2023-03-19T11:45:33.587Z,39.60
2023-03-19T11:48:20.701Z,39.40
2023-03-19T11:51:01.207Z,38.50
2023-03-19T11:54:12.341Z,38.90
2023-03-19T11:56:55.734Z,38.90
2023-03-19T11:59:38.155Z,38.00
2023-03-19T12:02:27.405Z,37.80
2023-03-19T12:04:58.303Z,38.00
2023-03-19T12:07:50.963Z,37.70
2023-03-19T12:10:38.749Z,36.70
2023-03-19T12:13:27.190Z,36.10
2023-03-19T12:16:13.667Z,35.30
2023-03-19T12:18:59.814Z,35.40
2023-03-19T12:21:57.044Z,35.10
2023-03-19T12:24:42.414Z,35.10
2023-03-19T12:27:34.411Z,34.30
2023-03-19T12:30:13.360Z,34.90
2023-03-19T12:33:11.642Z,35.80
2023-03-19T12:35:41.021Z,34.70
2023-03-19T12:38:29.022Z,36.00
2023-03-19T12:41:03.780Z,33.60
2023-03-19T12:43:54.094Z,34.00
2023-03-19T12:46:24.863Z,33.90
2023-03-19T12:49:11.224Z,32.90
2023-03-19T12:51:49.499Z,33.10
2023-03-19T12:54:25.399Z,33.40
2023-03-19T12:57:11.331Z,33.40
2023-03-19T12:59:51.081Z,34.10
2023-03-19T13:02:40.998Z,34.50
2023-03-19T13:05:38.570Z,34.50
2023-03-19T13:08:21.083Z,34.60
2023-03-19T13:10:47.906Z,34.40
2023-03-19T13:13:39.313Z,34.30
2023-03-19T13:16:37.708Z,34.20
2023-03-19T13:19:41.967Z,33.80
2023-03-19T13:22:13.415Z,33.70
2023-03-19T13:24:44.265Z,32.10
2023-03-19T13:27:26.191Z,33.70
2023-03-19T13:29:56.315Z,33.30
2023-03-19T13:32:34.449Z,33.80
2023-03-19T13:35:49.233Z,33.20
2023-03-19T13:38:34.358Z,32.40
2023-03-19T13:41:02.059Z,33.10
2023-03-19T13:43:29.235Z,32.70
2023-03-19T13:46:17.555Z,32.90
2023-03-19T13:48:47.716Z,32.90
2023-03-19T13:51:21.873Z,33.70
2023-03-19T13:54:13.152Z,33.20
2023-03-19T13:57:18.567Z,33.20
2023-03-19T13:59:48.220Z,32.70
2023-03-19T14:02:25.362Z,33.20
2023-03-19T14:05:02.499Z,32.60
2023-03-19T14:07:38.455Z,32.90
2023-03-19T14:10:13.721Z,32.50
2023-03-19T14:12:42.871Z,32.60
2023-03-19T14:15:09.916Z,31.80
2023-03-19T14:17:48.589Z,31.70
2023-03-19T14:20:19.910Z,31.60
2023-03-19T14:23:09.225Z,32.20
2023-03-19T14:25:58.353Z,32.40
2023-03-19T14:28:34.208Z,31.60
2023-03-19T14:31:03.617Z,32.00
2023-03-19T14:33:42.085Z,32.30
2023-03-19T14:36:15.415Z,32.00
2023-03-19T14:38:56.772Z,31.20
2023-03-19T14:41:27.696Z,31.90
2023-03-19T14:44:23.179Z,31.50
2023-03-19T14:47:17.430Z,32.00
2023-03-19T14:50:15.570Z,32.20
2023-03-19T14:52:52.047Z,32.60
2023-03-19T14:55:18.943Z,32.10
2023-03-19T14:57:45.904Z,32.60
2023-03-19T15:00:18.423Z,32.30
2023-03-19T15:02:52.744Z,32.30
2023-03-19T15:05:33.209Z,31.80
2023-03-19T15:08:12.609Z,32.00
2023-03-19T15:11:02.509Z,32.20
2023-03-19T15:13:35.302Z,32.40
2023-03-19T15:16:19.904Z,32.40
2023-03-19T15:18:46.845Z,32.00
2023-03-19T15:21:13.889Z,31.80
2023-03-19T15:23:41.839Z,32.10
2023-03-19T15:26:11.788Z,31.90
2023-03-19T15:28:54.046Z,31.60
2023-03-19T15:31:37.507Z,31.40
2023-03-19T15:34:24.391Z,31.70
2023-03-19T15:37:15.484Z,32.30
2023-03-19T15:39:50.382Z,32.30
2023-03-19T15:42:19.774Z,32.30
2023-03-19T15:44:51.839Z,32.10
2023-03-19T15:47:23.297Z,31.90
2023-03-19T15:50:04.265Z,31.90
2023-03-19T15:52:38.390Z,31.80
2023-03-19T15:55:06.797Z,31.80
2023-03-19T15:57:36.849Z,31.20
2023-03-19T16:00:05.253Z,31.60
2023-03-19T16:02:34.015Z,31.50
2023-03-19T16:05:22.446Z,30.90
2023-03-19T16:08:00.408Z,31.10
2023-03-19T16:10:36.302Z,31.10
2023-03-19T16:13:20.675Z,31.70
2023-03-19T16:16:08.139Z,31.40
2023-03-19T16:18:53.074Z,31.20
2023-03-19T16:21:43.098Z,31.50
2023-03-19T16:24:24.176Z,32.10
2023-03-19T16:26:52.182Z,32.70
2023-03-19T16:29:29.897Z,32.90
2023-03-19T16:32:14.369Z,33.30
2023-03-19T16:34:50.169Z,33.50
2023-03-19T16:37:35.021Z,33.30
2023-03-19T16:40:23.591Z,33.70
2023-03-19T16:42:52.552Z,33.90
2023-03-19T16:45:30.553Z,34.20
2023-03-19T16:48:05.297Z,34.50
2023-03-19T16:50:40.380Z,34.80
2023-03-19T16:53:22.511Z,34.50
2023-03-19T16:55:49.877Z,35.00
2023-03-19T16:58:19.949Z,35.20
2023-03-19T17:00:47.817Z,36.20
2023-03-19T17:03:17.490Z,35.90
2023-03-19T17:05:46.204Z,35.80
2023-03-19T17:08:13.647Z,35.90
2023-03-19T17:10:44.756Z,36.00
2023-03-19T17:13:31.513Z,36.30
2023-03-19T17:16:04.986Z,36.30
2023-03-19T17:18:35.408Z,36.40
2023-03-19T17:21:16.999Z,36.70
2023-03-19T17:23:44.873Z,36.90
2023-03-19T17:26:28.371Z,37.00
2023-03-19T17:28:56.375Z,37.40
2023-03-19T17:31:29.601Z,37.90
2023-03-19T17:34:05.940Z,39.10
2023-03-19T17:36:33.682Z,40.30
2023-03-19T17:39:02.375Z,41.20
2023-03-19T17:41:30.461Z,42.40
2023-03-19T17:43:57.483Z,44.60
2023-03-19T17:46:27.552Z,46.20
2023-03-19T17:48:55.467Z,47.40
2023-03-19T17:51:25.975Z,48.40
2023-03-19T17:53:54.623Z,49.30
2023-03-19T17:56:25.387Z,50.00
2023-03-19T17:58:52.732Z,50.50
2023-03-19T18:01:24.610Z,50.90
2023-03-19T18:03:53.485Z,51.30
2023-03-19T18:06:22.773Z,51.10
2023-03-19T18:08:49.668Z,51.00
2023-03-19T18:11:16.602Z,51.80
2023-03-19T18:13:43.541Z,52.30
2023-03-19T18:16:30.480Z,52.30
2023-03-19T18:19:01.158Z,53.90
2023-03-19T18:21:29.185Z,54.50
2023-03-19T18:23:57.375Z,55.30
2023-03-19T18:26:25.421Z,56.80
2023-03-19T18:28:52.274Z,57.60
2023-03-19T18:31:22.893Z,58.00
2023-03-19T18:33:55.305Z,57.20
2023-03-19T18:36:26.835Z,57.00
2023-03-19T18:38:57.470Z,57.80
2023-03-19T18:41:26.230Z,58.30
2023-03-19T18:43:52.983Z,58.10
2023-03-19T18:46:30.893Z,57.90
2023-03-19T18:49:01.305Z,57.70
2023-03-19T18:51:28.566Z,58.60
2023-03-19T18:53:56.092Z,59.30
2023-03-19T18:56:26.315Z,59.10
2023-03-19T18:58:55.211Z,58.40
2023-03-19T19:01:23.110Z,58.50
2023-03-19T19:03:51.100Z,59.10
2023-03-19T19:06:45.879Z,59.30
2023-03-19T19:09:13.872Z,59.10
2023-03-19T19:11:43.919Z,59.30
2023-03-19T19:14:19.504Z,58.80
2023-03-19T19:16:46.480Z,58.20
2023-03-19T19:19:20.306Z,58.20
2023-03-19T19:21:47.056Z,58.30
2023-03-19T19:24:15.009Z,58.40
2023-03-19T19:26:46.697Z,58.50
2023-03-19T19:29:25.271Z,58.70
2023-03-19T19:31:53.423Z,58.60
2023-03-19T19:34:20.558Z,58.60
2023-03-19T19:36:47.392Z,58.80
2023-03-19T19:39:14.174Z,59.90
2023-03-19T19:41:43.719Z,59.50
2023-03-19T19:44:21.419Z,59.50
2023-03-19T19:46:48.409Z,59.40
2023-03-19T19:49:15.458Z,59.80
2023-03-19T19:51:42.284Z,61.20
2023-03-19T19:54:09.038Z,61.20
2023-03-19T19:56:37.343Z,61.70
2023-03-19T19:59:06.535Z,62.10
2023-03-19T20:01:33.353Z,61.70
2023-03-19T20:04:00.416Z,61.70
2023-03-19T20:06:27.654Z,60.90
2023-03-19T20:08:54.396Z,60.90
2023-03-19T20:11:23.974Z,61.00
2023-03-19T20:13:54.606Z,61.80
2023-03-19T20:16:24.402Z,61.90
2023-03-19T20:18:53.812Z,61.10
2023-03-19T20:21:21.601Z,61.50
2023-03-19T20:23:51.268Z,61.50
2023-03-19T20:26:21.946Z,61.00
2023-03-19T20:28:49.526Z,60.50
2023-03-19T20:31:38.596Z,61.10
2023-03-19T20:34:05.388Z,60.80
2023-03-19T20:36:32.362Z,60.80
2023-03-19T20:38:59.216Z,60.90
2023-03-19T20:41:27.289Z,60.30
2023-03-19T20:43:54.745Z,60.30
2023-03-19T20:46:23.335Z,59.00
2023-03-19T20:48:50.229Z,59.10
2023-03-19T20:51:25.044Z,58.90
2023-03-19T20:53:52.765Z,59.20
2023-03-19T20:56:22.546Z,59.30
2023-03-19T20:58:49.629Z,59.30
2023-03-19T21:01:17.842Z,59.30
2023-03-19T21:03:44.699Z,59.50
2023-03-19T21:06:23.029Z,60.00
2023-03-19T21:08:58.784Z,59.90
2023-03-19T21:11:40.890Z,60.20
2023-03-19T21:14:16.010Z,60.20
2023-03-19T21:16:42.963Z,60.30
2023-03-19T21:19:09.740Z,60.40
2023-03-19T21:21:38.803Z,60.70
2023-03-19T21:24:09.979Z,60.90
2023-03-19T21:26:39.150Z,61.30
2023-03-19T21:29:12.060Z,61.50
2023-03-19T21:31:38.799Z,61.70
2023-03-19T21:34:05.825Z,61.40
2023-03-19T21:36:32.524Z,61.70
2023-03-19T21:38:59.270Z,61.40
2023-03-19T21:41:35.879Z,61.30
2023-03-19T21:44:19.588Z,61.30
2023-03-19T21:46:47.803Z,61.40
2023-03-19T21:49:15.321Z,61.60
2023-03-19T21:51:44.949Z,62.00
2023-03-19T21:54:11.982Z,62.70
2023-03-19T21:56:44.948Z,62.60
2023-03-19T21:59:33.872Z,62.80
2023-03-19T22:02:00.714Z,62.50
2023-03-19T22:04:27.502Z,62.50
2023-03-19T22:06:54.289Z,62.40
2023-03-19T22:09:21.518Z,62.90
2023-03-19T22:11:48.454Z,63.50
2023-03-19T22:14:19.357Z,62.80
2023-03-19T22:16:47.515Z,62.70
2023-03-19T22:19:16.332Z,62.60
2023-03-19T22:21:43.638Z,62.80
2023-03-19T22:24:10.730Z,63.40
2023-03-19T22:26:40.543Z,63.70
2023-03-19T22:29:20.342Z,63.40
2023-03-19T22:31:52.152Z,63.40
2023-03-19T22:34:22.212Z,63.30
2023-03-19T22:36:49.496Z,64.30
2023-03-19T22:39:16.368Z,63.50
2023-03-19T22:41:47.820Z,63.70
2023-03-19T22:44:27.925Z,63.50
2023-03-19T22:46:56.491Z,63.60
2023-03-19T22:49:24.747Z,64.10
2023-03-19T22:51:51.837Z,64.60
2023-03-19T22:54:18.632Z,64.40
2023-03-19T22:56:45.549Z,64.80
2023-03-19T22:59:12.345Z,65.30
2023-03-19T23:01:42.015Z,65.30
2023-03-19T23:04:23.819Z,65.50
2023-03-19T23:06:51.892Z,65.50
2023-03-19T23:09:21.875Z,65.90
2023-03-19T23:11:48.789Z,66.20
2023-03-19T23:14:28.504Z,66.10
2023-03-19T23:19:32.765Z,65.80
2023-03-19T23:22:01.264Z,65.60
2023-03-19T23:24:28.159Z,66.00
2023-03-19T23:26:57.448Z,66.10
2023-03-19T23:29:35.309Z,66.40
2023-03-19T23:32:03.384Z,66.80
2023-03-19T23:34:30.414Z,66.40
2023-03-19T23:36:58.086Z,66.90
2023-03-19T23:39:25.667Z,66.70
2023-03-19T23:41:56.862Z,66.70
2023-03-19T23:44:23.730Z,66.80
2023-03-19T23:46:52.174Z,66.40
2023-03-19T23:49:30.855Z,67.50
2023-03-19T23:51:57.976Z,67.90
2023-03-19T23:54:28.276Z,68.10
2023-03-19T23:56:58.371Z,68.00
2023-03-19T23:59:26.716Z,67.80
